Time;durP1;ratioP1;P1;durP2;ratioP2;P2;SDS_P1;SDS_P2;PMS_P1;PMS_P2;Temp;Humidity;BMP_temperature;BMP_pressure;BME280_temperature;BME280_humidity;BME280_pressure;Samples;Min_cycle;Max_cycle;Signal;HPM_P1;HPM_P2
2024/01/07 11:12:58;;;;;;;27.10;4.18;;;;;;;14.96;100.00;100024.94;5115788;27;20393;-72
2024/01/07 11:15:48;;;;;;;27.65;4.78;;;;;;;14.96;100.00;100436.31;5111193;27;20024;-70
2024/01/07 11:18:20;;;;;;;20.48;5.32;;;;;;;14.61;100.00;101013.50;5111722;28;20035;-72
2024/01/07 11:20:46;;;;;;;21.02;4.78;;;;;;;14.62;100.00;101214.81;5112634;28;20067;-69
2024/01/07 11:23:32;;;;;;;26.20;5.45;;;;;;;14.52;100.00;101157.91;5107527;28;20039;-71
2024/01/07 11:26:01;;;;;;;29.85;6.18;;;;;;;14.55;100.00;101083.63;5108446;28;20032;-72
2024/01/07 11:28:44;;;;;;;30.33;7.82;;;;;;;14.74;100.00;101030.19;5107522;28;20036;-70
2024/01/07 11:31:10;;;;;;;25.83;4.72;;;;;;;14.17;100.00;100885.94;5112813;27;20066;-71
2024/01/07 11:33:49;;;;;;;20.23;5.20;;;;;;;14.92;100.00;100960.53;5115509;28;20059;-70
2024/01/07 11:36:18;;;;;;;27.58;6.22;;;;;;;14.89;100.00;100894.06;5110121;28;20023;-75
2024/01/07 11:38:47;;;;;;;29.50;7.03;;;;;;;14.89;100.00;100894.06;5108435;28;20036;-71
2024/01/07 11:41:14;;;;;;;25.33;6.93;;;;;;;14.88;100.00;100814.69;5119753;27;20027;-72
2024/01/07 11:43:59;;;;;;;27.13;7.15;;;;;;;14.79;100.00;100728.81;5109354;28;20467;-73
2024/01/07 11:46:26;;;;;;;27.45;6.93;;;;;;;14.48;100.00;100659.06;5113250;27;20035;-71
2024/01/07 11:48:59;;;;;;;24.42;6.00;;;;;;;14.65;100.00;100654.19;5112940;28;20115;-70
2024/01/07 11:51:34;;;;;;;31.00;7.63;;;;;;;14.69;100.00;100661.72;5114030;28;20042;-70
2024/01/07 11:54:01;;;;;;;31.42;8.77;;;;;;;14.12;100.00;100545.13;5113450;27;20024;-70
2024/01/07 11:56:27;;;;;;;38.53;11.65;;;;;;;14.64;100.00;100639.72;5111485;28;20034;-71
2024/01/07 11:58:53;;;;;;;38.80;10.27;;;;;;;14.67;100.00;100660.09;5116584;27;20031;-71
2024/01/07 12:01:19;;;;;;;32.20;9.20;;;;;;;14.07;100.00;100560.59;5111945;28;20042;-71
2024/01/07 12:03:45;;;;;;;35.53;8.40;;;;;;;14.33;100.00;100627.13;5113291;28;20024;-72
2024/01/07 12:06:13;;;;;;;36.55;6.63;;;;;;;14.45;100.00;100656.59;5117955;28;20027;-70
2024/01/07 12:08:43;;;;;;;34.58;6.78;;;;;;;14.55;100.00;100657.94;5113468;27;20038;-70
2024/01/07 12:11:11;;;;;;;42.92;13.40;;;;;;;14.20;100.00;100671.84;5115139;27;20054;-70
2024/01/07 12:13:37;;;;;;;40.00;11.75;;;;;;;14.54;100.00;100768.84;5114041;28;20067;-70
2024/01/07 12:16:03;;;;;;;41.33;14.73;;;;;;;14.28;100.00;100756.88;5120335;28;20055;-67
2024/01/07 12:18:29;;;;;;;49.50;19.58;;;;;;;14.46;100.00;100811.78;5115686;28;20031;-68
2024/01/07 12:20:59;;;;;;;47.65;17.05;;;;;;;14.46;100.00;100842.50;5105454;28;20054;-70
2024/01/07 12:23:25;;;;;;;38.33;10.90;;;;;;;14.61;100.00;100849.69;5101524;27;20031;-70
2024/01/07 12:25:57;;;;;;;40.92;9.77;;;;;;;14.60;100.00;100877.00;5093367;28;20497;-71
2024/01/07 12:28:24;;;;;;;38.88;9.82;;;;;;;14.35;100.00;100881.19;5092705;28;20035;-72
2024/01/07 12:30:50;;;;;;;38.38;9.40;;;;;;;14.71;100.00;100994.44;5093911;28;20521;-70
2024/01/07 12:33:18;;;;;;;35.23;7.60;;;;;;;14.46;100.00;100952.53;4400482;27;10000929;-70
2024/01/07 12:35:45;;;;;;;41.22;7.60;;;;;;;14.48;100.00;100935.41;5106863;27;20043;-71
2024/01/07 12:38:10;;;;;;;38.67;7.90;;;;;;;14.15;100.00;100903.03;5124649;27;20118;-71
2024/01/07 12:40:36;;;;;;;39.22;7.68;;;;;;;14.36;100.00;100953.66;5126584;27;20552;-68
2024/01/07 12:43:02;;;;;;;35.03;8.13;;;;;;;14.71;100.00;101043.94;5124138;27;20023;-69
2024/01/07 12:45:27;;;;;;;34.33;7.80;;;;;;;14.56;100.00;101017.88;5125490;27;20506;-70
2024/01/07 12:47:55;;;;;;;37.83;7.38;;;;;;;14.73;100.00;101061.81;5125083;27;20031;-69
2024/01/07 12:50:23;;;;;;;37.67;6.95;;;;;;;14.74;100.00;101069.44;5126232;27;20118;-70
2024/01/07 12:52:48;;;;;;;44.30;8.63;;;;;;;14.66;100.00;101086.72;5124361;27;20043;-73
2024/01/07 12:55:13;;;;;;;45.63;9.57;;;;;;;14.59;100.00;101069.84;5126335;27;23716;-69
2024/01/07 12:57:39;;;;;;;40.83;8.48;;;;;;;14.54;100.00;101066.56;5127154;27;20079;-69
2024/01/07 13:00:06;;;;;;;36.13;8.27;;;;;;;14.47;100.00;101092.38;5127606;27;20035;-68
2024/01/07 13:02:33;;;;;;;39.33;9.65;;;;;;;14.37;100.00;101093.47;5110145;27;20483;-70
2024/01/07 13:04:58;;;;;;;39.95;8.45;;;;;;;14.75;100.00;101193.16;5114379;27;20036;-71
2024/01/07 13:07:24;;;;;;;42.80;9.45;;;;;;;14.43;100.00;101165.81;5088251;28;20063;-69
2024/01/07 13:09:49;;;;;;;43.65;9.48;;;;;;;14.49;100.00;101221.13;5069395;28;20089;-76
2024/01/07 13:12:15;;;;;;;51.90;12.43;;;;;;;14.29;100.00;101241.22;5089375;28;20515;-69
2024/01/07 13:14:42;;;;;;;50.63;9.98;;;;;;;14.49;100.00;101316.66;5089174;28;20056;-70
2024/01/07 13:17:08;;;;;;;33.58;6.20;;;;;;;14.34;100.00;101321.28;5073242;28;20028;-71
2024/01/07 13:19:33;;;;;;;35.28;6.97;;;;;;;14.59;100.00;101420.53;5087596;28;20085;-70
2024/01/07 13:21:59;;;;;;;44.28;7.95;;;;;;;14.64;100.00;101471.59;5073471;28;20026;-69
2024/01/07 13:24:25;;;;;;;45.70;10.65;;;;;;;14.33;100.00;101442.38;5071301;28;20078;-69
2024/01/07 13:26:50;;;;;;;44.00;10.68;;;;;;;14.07;100.00;101447.13;5090810;28;20044;-70
2024/01/07 13:29:15;;;;;;;46.10;11.65;;;;;;;14.06;100.00;101511.94;5091852;28;20043;-71
2024/01/07 13:31:41;;;;;;;38.70;7.88;;;;;;;14.47;100.00;101678.41;5089800;28;20047;-70
2024/01/07 13:34:06;;;;;;;42.72;8.65;;;;;;;14.34;100.00;101664.16;5089139;28;20107;-70
2024/01/07 13:36:32;;;;;;;40.17;8.32;;;;;;;14.31;100.00;101772.50;5072025;28;20039;-71
2024/01/07 13:38:57;;;;;;;46.35;7.22;;;;;;;13.89;100.00;101773.03;5090062;28;20533;-70
2024/01/07 13:41:23;;;;;;;45.13;9.02;;;;;;;14.24;100.00;101926.09;5082206;28;20495;-71
2024/01/07 13:43:49;;;;;;;42.13;8.68;;;;;;;13.99;100.00;101960.44;5089202;28;20032;-70
2024/01/07 13:46:15;;;;;;;39.67;8.95;;;;;;;14.19;100.00;102063.44;5091496;28;20036;-72
2024/01/07 13:48:43;;;;;;;45.10;10.25;;;;;;;14.18;100.00;102100.13;5071811;28;20119;-75
2024/01/07 13:51:09;;;;;;;40.53;9.05;;;;;;;13.83;100.00;102138.75;5088942;28;20035;-69
2024/01/07 13:53:45;;;;;;;43.55;8.75;;;;;;;13.88;100.00;102196.66;5087858;28;20414;-70
2024/01/07 13:56:11;;;;;;;26.95;6.32;;;;;;;14.58;100.00;102506.84;5069538;28;20028;-71
2024/01/07 13:58:36;;;;;;;33.63;6.90;;;;;;;14.38;100.00;102495.81;5071270;28;20384;-70
2024/01/07 14:01:02;;;;;;;45.25;8.02;;;;;;;13.57;100.00;102402.19;5072419;28;20406;-79
2024/01/07 14:03:30;;;;;;;32.70;7.40;;;;;;;14.65;100.00;102794.50;5091146;28;20074;-76
2024/01/07 14:06:03;;;;;;;42.40;8.25;;;;;;;14.56;100.00;102846.56;5091049;28;20043;-74
2024/01/07 14:08:29;;;;;;;34.97;9.73;;;;;;;14.20;100.00;102815.72;5072188;28;20454;-76
2024/01/07 14:10:54;;;;;;;40.15;10.13;;;;;;;14.35;100.00;102953.16;5069568;28;20044;-77
2024/01/07 14:13:22;;;;;;;41.38;9.57;;;;;;;13.80;100.00;102872.69;5090992;28;20031;-74
2024/01/07 14:15:48;;;;;;;36.92;9.18;;;;;;;13.55;100.00;102940.72;5070406;28;20024;-70
2024/01/07 14:18:15;;;;;;;41.15;10.95;;;;;;;13.54;100.00;103030.19;5070817;28;20059;-71
2024/01/07 14:20:41;;;;;;;43.50;11.95;;;;;;;14.03;100.00;103160.22;5069850;28;20107;-71
2024/01/07 14:23:07;;;;;;;34.35;9.80;;;;;;;14.00;100.00;103256.56;5070900;28;20028;-70
2024/01/07 14:25:32;;;;;;;41.88;10.65;;;;;;;13.90;100.00;103291.41;5087748;28;20459;-70
2024/01/07 14:27:58;;;;;;;41.08;10.68;;;;;;;13.63;100.00;103342.19;5087352;28;20035;-71
2024/01/07 14:30:23;;;;;;;40.05;10.60;;;;;;;13.93;100.00;103506.34;5087236;28;20038;-71
2024/01/07 14:32:50;;;;;;;45.70;10.25;;;;;;;13.71;100.00;103514.53;5086642;28;20395;-71
2024/01/07 14:35:16;;;;;;;41.53;11.15;;;;;;;14.10;100.00;103655.91;5086879;28;20036;-71
2024/01/07 14:37:41;;;;;;;46.83;11.68;;;;;;;13.99;100.00;103644.63;5067713;28;20081;-70
2024/01/07 14:40:07;;;;;;;41.33;11.48;;;;;;;13.54;100.00;103598.63;5089008;28;20031;-70
2024/01/07 14:42:33;;;;;;;38.70;9.85;;;;;;;13.34;100.00;103614.44;5087093;28;20035;-70
2024/01/07 14:44:58;;;;;;;35.05;10.00;;;;;;;13.64;100.00;103714.75;5085774;28;20743;-67
2024/01/07 14:47:23;;;;;;;41.13;9.77;;;;;;;13.54;100.00;103766.53;5066651;28;20035;-69
2024/01/07 14:49:49;;;;;;;38.63;13.35;;;;;;;13.72;100.00;103821.50;5085962;28;20554;-69
2024/01/07 14:52:14;;;;;;;45.97;13.68;;;;;;;13.85;100.00;103913.00;5084419;28;20039;-70
2024/01/07 14:54:40;;;;;;;48.05;14.60;;;;;;;13.89;100.00;103955.75;5085189;28;20044;-69
2024/01/07 14:57:08;;;;;;;45.13;17.73;;;;;;;13.51;100.00;103925.00;5084441;28;20036;-68
2024/01/07 14:59:35;;;;;;;53.97;22.77;;;;;;;13.83;100.00;103999.09;5084585;28;20036;-71
2024/01/07 15:02:01;;;;;;;47.53;18.52;;;;;;;13.56;100.00;104031.69;5070507;28;20059;-70
2024/01/07 15:04:27;;;;;;;45.15;16.00;;;;;;;13.55;100.00;103970.25;5088976;28;20103;-70
2024/01/07 15:06:52;;;;;;;47.25;16.25;;;;;;;13.62;100.00;104051.44;5070673;28;20122;-70
2024/01/07 15:09:18;;;;;;;49.38;14.63;;;;;;;13.26;100.00;104009.56;5086925;28;20028;-72
2024/01/07 15:11:46;;;;;;;38.92;12.43;;;;;;;13.55;100.00;104075.97;5056938;28;20048;-70
2024/01/07 15:14:12;;;;;;;45.75;12.90;;;;;;;13.46;100.00;104095.34;5086143;28;20470;-70
2024/01/07 15:16:37;;;;;;;42.90;15.32;;;;;;;13.44;100.00;104087.63;5087673;28;20039;-69
2024/01/07 15:19:03;;;;;;;49.92;18.92;;;;;;;13.24;100.00;104091.34;5073141;28;20031;-69
2024/01/07 15:21:29;;;;;;;46.58;19.60;;;;;;;13.42;100.00;104075.63;5071889;28;20039;-71
2024/01/07 15:23:54;;;;;;;50.92;19.17;;;;;;;13.23;100.00;103979.69;5084038;28;20028;-69
2024/01/07 15:26:19;;;;;;;49.10;18.52;;;;;;;13.22;100.00;103870.63;5085695;28;20044;-70
2024/01/07 15:28:45;;;;;;;49.97;18.33;;;;;;;13.17;100.00;103854.34;5083418;28;20039;-70
2024/01/07 15:31:10;;;;;;;43.80;17.42;;;;;;;13.22;100.00;103931.09;5085260;28;20039;-70
2024/01/07 15:33:36;;;;;;;41.22;17.10;;;;;;;13.02;100.00;103972.31;5082731;28;20028;-73
2024/01/07 15:36:04;;;;;;;56.08;27.35;;;;;;;13.22;100.00;104057.19;5084540;28;20097;-72
2024/01/07 15:38:31;;;;;;;60.58;28.98;;;;;;;13.13;100.00;104107.19;5082549;28;21430;-69
2024/01/07 15:40:56;;;;;;;51.53;23.35;;;;;;;12.85;100.00;104119.16;5070703;28;20031;-70
2024/01/07 15:43:22;;;;;;;56.53;29.52;;;;;;;13.15;100.00;104224.00;5084135;28;20028;-69
2024/01/07 15:45:47;;;;;;;59.55;31.98;;;;;;;13.04;100.00;104239.00;5084777;28;20047;-72
2024/01/07 15:48:14;;;;;;;62.20;25.85;;;;;;;12.72;100.00;104214.09;5083934;28;20483;-71
2024/01/07 15:50:40;;;;;;;49.60;19.85;;;;;;;13.11;100.00;104362.72;5069377;28;20059;-71
2024/01/07 15:53:05;;;;;;;54.10;20.60;;;;;;;12.89;100.00;104424.13;5084897;28;20127;-70
2024/01/07 15:55:30;;;;;;;50.63;20.38;;;;;;;12.76;100.00;104498.56;5084984;28;20074;-71
2024/01/07 15:57:56;;;;;;;46.80;20.30;;;;;;;13.07;100.00;104608.78;5071756;28;20028;-70
2024/01/07 16:00:21;;;;;;;42.17;20.27;;;;;;;13.00;100.00;104622.97;5089657;28;20090;-70
2024/01/07 16:02:47;;;;;;;46.28;20.65;;;;;;;12.99;100.00;104709.81;5076475;28;20099;-71
2024/01/07 16:05:12;;;;;;;38.83;15.50;;;;;;;12.93;100.00;104728.31;5071535;28;20072;-71
2024/01/07 16:07:38;;;;;;;38.53;12.35;;;;;;;12.91;100.00;104782.75;5070287;28;20028;-70
2024/01/07 16:10:03;;;;;;;39.25;11.30;;;;;;;12.70;100.00;104809.97;5088824;28;20460;-69
2024/01/07 16:12:30;;;;;;;44.42;11.65;;;;;;;12.86;100.00;104851.53;5074063;28;20048;-71
2024/01/07 16:14:57;;;;;;;37.35;10.88;;;;;;;12.86;100.00;104922.19;5090333;28;20059;-70
2024/01/07 16:17:23;;;;;;;42.45;13.57;;;;;;;12.87;100.00;105001.50;5090837;28;20028;-71
2024/01/07 16:19:48;;;;;;;45.50;13.65;;;;;;;12.64;100.00;105067.66;5090291;28;20039;-73
2024/01/07 16:22:13;;;;;;;47.30;14.40;;;;;;;12.56;100.00;105108.19;5071330;28;20051;-72
2024/01/07 16:24:40;;;;;;;33.67;12.68;;;;;;;12.80;100.00;105162.97;5070526;28;20036;-71
2024/01/07 16:27:08;;;;;;;38.50;11.93;;;;;;;12.64;100.00;105251.59;5071451;28;20112;-72
2024/01/07 16:29:35;;;;;;;41.40;14.52;;;;;;;12.83;100.00;105392.22;5086868;28;20035;-71
2024/01/07 16:32:00;;;;;;;46.55;19.38;;;;;;;12.82;100.00;105518.22;5087482;28;20032;-72
2024/01/07 16:34:27;;;;;;;54.45;24.13;;;;;;;12.66;100.00;105487.53;4734952;28;9999864;-70
2024/01/07 16:36:53;;;;;;;43.25;17.85;;;;;;;12.70;100.00;105497.13;5076093;28;20066;-69
2024/01/07 16:39:18;;;;;;;50.28;16.15;;;;;;;12.66;100.00;105503.75;5074609;28;20064;-70
2024/01/07 16:41:44;;;;;;;42.33;14.60;;;;;;;12.63;100.00;105562.38;5089422;28;20074;-71
2024/01/07 16:44:09;;;;;;;38.80;14.55;;;;;;;12.11;100.00;105562.88;5073377;28;20032;-68
2024/01/07 16:46:39;;;;;;;50.00;16.23;;;;;;;12.52;100.00;105706.47;5089554;28;20449;-68
2024/01/07 16:49:06;;;;;;;46.97;17.95;;;;;;;12.61;100.00;105762.34;5071082;28;20101;-67
2024/01/07 16:51:32;;;;;;;64.95;30.17;;;;;;;12.27;100.00;105796.91;5072443;28;20115;-67
2024/01/07 16:53:58;;;;;;;62.00;26.70;;;;;;;12.48;100.00;105872.25;5086583;28;20103;-67
2024/01/07 16:56:23;;;;;;;56.25;22.65;;;;;;;12.55;100.00;105974.91;5071149;28;20031;-68
2024/01/07 16:58:49;;;;;;;42.35;13.85;;;;;;;12.56;100.00;106136.69;5088045;28;20028;-67
2024/01/07 17:01:16;;;;;;;54.58;26.52;;;;;;;12.10;100.00;106158.41;5069254;28;20036;-66
2024/01/07 17:03:42;;;;;;;39.55;16.60;;;;;;;12.20;100.00;106245.91;5089412;28;20028;-68
2024/01/07 17:06:09;;;;;;;42.20;16.98;;;;;;;12.39;100.00;106392.72;5074707;28;20031;-71
2024/01/07 17:08:35;;;;;;;38.78;14.32;;;;;;;12.18;100.00;106354.72;5090697;28;20087;-67
2024/01/07 17:11:00;;;;;;;39.55;11.98;;;;;;;12.09;100.00;106274.06;5069783;28;20453;-70
2024/01/07 17:13:26;;;;;;;39.40;12.25;;;;;;;12.14;100.00;106122.09;5089243;28;20644;-66
2024/01/07 17:15:51;;;;;;;38.63;11.43;;;;;;;12.31;100.00;106156.34;5088830;28;20727;-68
2024/01/07 17:18:17;;;;;;;39.15;12.00;;;;;;;12.30;100.00;106141.84;5089489;28;20036;-68
2024/01/07 17:20:42;;;;;;;41.75;11.32;;;;;;;12.37;100.00;106270.03;5069975;28;20039;-67
2024/01/07 17:23:08;;;;;;;40.50;12.23;;;;;;;12.41;100.00;106429.47;5085999;28;20114;-67
2024/01/07 17:25:33;;;;;;;55.80;19.30;;;;;;;11.81;100.00;106423.50;5087204;28;20030;-69
2024/01/07 17:27:59;;;;;;;54.60;22.45;;;;;;;11.87;100.00;106549.91;5087461;28;20028;-68
2024/01/07 17:30:27;;;;;;;54.58;21.40;;;;;;;12.24;100.00;106618.94;5075554;28;20414;-68
2024/01/07 17:32:59;;;;;;;60.67;20.75;;;;;;;12.23;100.00;106793.38;5085154;28;20537;-70
2024/01/07 17:35:25;;;;;;;52.75;21.98;;;;;;;12.14;100.00;106847.19;5088214;28;20024;-69
2024/01/07 17:37:51;;;;;;;52.15;20.27;;;;;;;11.87;100.00;107010.97;5088505;28;20043;-66
2024/01/07 17:40:17;;;;;;;46.75;16.45;;;;;;;12.18;100.00;107452.78;5071871;28;20032;-68
2024/01/07 17:42:42;;;;;;;43.47;17.75;;;;;;;12.38;100.00;107824.09;5090765;28;20110;-68
2024/01/07 17:45:09;;;;;;;65.13;35.08;;;;;;;12.34;100.00;108001.75;5084156;28;20031;-73
2024/01/07 17:47:35;;;;;;;79.65;37.35;;;;;;;12.06;100.00;108130.19;5072637;28;20032;-68
2024/01/07 17:50:01;;;;;;;72.38;32.08;;;;;;;12.11;100.00;108535.13;5070928;28;20020;-68
2024/01/07 17:52:29;;;;;;;53.00;26.23;;;;;;;12.26;100.00;108914.88;5073548;28;20028;-71
2024/01/07 17:54:56;;;;;;;78.22;42.90;;;;;;;12.65;100.00;109279.78;5088882;28;20028;-69
2024/01/07 17:57:25;;;;;;;132.38;77.88;;;;;;;12.56;100.00;109345.22;5084430;28;20077;-70
2024/01/07 17:59:52;;;;;;;124.93;78.28;;;;;;;12.50;100.00;109443.34;5079258;28;20497;-67
2024/01/07 18:02:17;;;;;;;105.35;64.88;;;;;;;12.28;100.00;109501.22;5087272;28;20039;-69
2024/01/07 18:04:43;;;;;;;99.85;57.03;;;;;;;12.45;100.00;109585.97;5085570;28;20032;-70
2024/01/07 18:07:10;;;;;;;104.25;51.47;;;;;;;12.55;100.00;109601.66;5069112;28;20032;-67
2024/01/07 18:09:35;;;;;;;97.60;47.53;;;;;;;12.32;100.00;109607.31;5085972;28;20028;-68
2024/01/07 18:12:02;;;;;;;96.68;43.22;;;;;;;12.56;100.00;109616.25;5072315;28;20431;-67
2024/01/07 18:14:28;;;;;;;82.15;36.40;;;;;;;11.98;100.00;109512.94;5091639;28;20023;-67
2024/01/07 18:16:54;;;;;;;80.68;35.95;;;;;;;12.47;100.00;109520.59;5070554;28;20035;-67
2024/01/07 18:19:19;;;;;;;51.75;26.45;;;;;;;12.11;100.00;109430.25;5090122;28;20044;-69
2024/01/07 18:21:45;;;;;;;46.58;22.25;;;;;;;12.00;100.00;109379.50;5073439;28;20043;-71
2024/01/07 18:24:11;;;;;;;41.13;16.63;;;;;;;12.33;100.00;109435.31;5089237;28;20031;-70
2024/01/07 18:26:36;;;;;;;38.20;15.05;;;;;;;11.95;100.00;109390.84;5091830;28;20032;-68
2024/01/07 18:29:02;;;;;;;42.08;14.68;;;;;;;12.05;100.00;109418.38;5092648;28;20517;-69
2024/01/07 18:31:27;;;;;;;35.80;13.27;;;;;;;11.66;100.00;109350.72;5088048;28;20178;-72
2024/01/07 18:33:53;;;;;;;29.02;10.15;;;;;;;11.90;100.00;109389.41;5089026;28;20474;-69
2024/01/07 18:36:18;;;;;;;37.42;10.73;;;;;;;12.08;100.00;109514.19;5071366;28;20032;-68
2024/01/07 18:38:44;;;;;;;35.42;13.00;;;;;;;12.43;100.00;109668.31;5089658;28;20044;-68
2024/01/07 18:41:09;;;;;;;34.20;14.80;;;;;;;12.06;100.00;109576.97;5090838;28;20096;-68
2024/01/07 18:43:35;;;;;;;34.78;12.70;;;;;;;11.47;100.00;109384.94;5087588;28;20023;-69
2024/01/07 18:46:01;;;;;;;30.63;11.27;;;;;;;11.87;100.00;109422.22;5086678;28;20402;-73
2024/01/07 18:48:26;;;;;;;35.60;12.38;;;;;;;11.74;100.00;109341.41;5086186;28;20051;-68
2024/01/07 18:50:53;;;;;;;31.33;13.90;;;;;;;11.87;100.00;109395.75;5072637;28;20043;-67
2024/01/07 18:53:19;;;;;;;75.07;32.08;;;;;;;12.15;100.00;109531.19;5087845;28;20043;-68
2024/01/07 18:55:46;;;;;;;59.65;28.80;;;;;;;11.98;100.00;109603.22;5088842;28;20430;-69
2024/01/07 18:58:12;;;;;;;58.92;26.35;;;;;;;12.03;100.00;109690.66;5072482;28;20056;-69
2024/01/07 19:00:38;;;;;;;54.58;23.17;;;;;;;12.11;100.00;109633.75;5059152;28;20036;-71
2024/01/07 19:03:07;;;;;;;57.33;27.70;;;;;;;12.20;100.00;109684.31;5070016;28;20423;-69
2024/01/07 19:05:32;;;;;;;63.80;27.40;;;;;;;11.99;100.00;109668.94;5084996;28;20474;-68
2024/01/07 19:07:58;;;;;;;53.38;25.27;;;;;;;11.89;100.00;109654.84;5087677;28;20028;-69
2024/01/07 19:10:24;;;;;;;45.38;20.10;;;;;;;12.24;100.00;109739.28;5084910;28;20024;-68
2024/01/07 19:12:49;;;;;;;39.58;17.15;;;;;;;11.89;100.00;109599.56;5071092;28;20055;-69
2024/01/07 19:15:17;;;;;;;31.65;15.57;;;;;;;11.97;100.00;109626.03;5068800;28;20032;-69
2024/01/07 19:17:47;;;;;;;35.03;14.75;;;;;;;12.14;100.00;109634.13;5050731;28;20570;-70
2024/01/07 19:20:16;;;;;;;30.35;13.85;;;;;;;11.95;100.00;109630.06;5045721;28;20029;-69
2024/01/07 19:22:42;;;;;;;35.10;13.35;;;;;;;11.74;100.00;109566.16;5066547;28;20036;-69
2024/01/07 19:25:08;;;;;;;27.70;12.82;;;;;;;11.70;100.00;109599.69;5066919;28;20032;-68
2024/01/07 19:27:34;;;;;;;29.73;12.23;;;;;;;11.74;100.00;109624.88;5049303;28;20037;-68
2024/01/07 19:30:00;;;;;;;29.85;12.05;;;;;;;11.94;100.00;109636.78;5067693;28;20040;-67
2024/01/07 19:32:26;;;;;;;34.90;13.13;;;;;;;11.92;100.00;109655.25;5069412;28;20227;-68
2024/01/07 19:34:52;;;;;;;30.63;13.02;;;;;;;11.99;100.00;109743.03;5073544;28;20407;-67
2024/01/07 19:37:19;;;;;;;26.88;12.20;;;;;;;11.90;100.00;109751.22;5053739;28;20035;-68
2024/01/07 19:39:45;;;;;;;31.70;13.68;;;;;;;11.55;100.00;109728.00;5072534;28;20124;-67
2024/01/07 19:42:13;;;;;;;26.13;12.93;;;;;;;11.78;100.00;109788.91;5055801;28;20546;-68
2024/01/07 19:44:40;;;;;;;27.92;12.45;;;;;;;11.85;100.00;109903.91;5053798;28;20564;-68
2024/01/07 19:47:06;;;;;;;28.27;12.88;;;;;;;11.74;100.00;109951.78;5054114;28;20032;-67
2024/01/07 19:49:31;;;;;;;29.02;13.05;;;;;;;11.60;100.00;109983.19;5071114;28;20086;-69
2024/01/07 19:51:57;;;;;;;36.10;15.75;;;;;;;11.73;100.00;110019.81;5073956;28;20025;-67
2024/01/07 19:54:24;;;;;;;30.50;14.93;;;;;;;11.59;100.00;109971.13;5055138;28;20481;-68
2024/01/07 19:56:50;;;;;;;33.03;15.80;;;;;;;11.60;100.00;110118.53;5054321;28;20025;-68
2024/01/07 19:59:19;;;;;;;32.63;15.82;;;;;;;11.45;100.00;110190.50;5053517;28;20032;-69
2024/01/07 20:01:45;;;;;;;30.55;15.40;;;;;;;11.77;100.00;110327.66;5073519;28;20032;-70
2024/01/07 20:04:11;;;;;;;33.28;15.73;;;;;;;11.10;100.00;110231.75;5070964;28;20115;-67
2024/01/07 20:06:40;;;;;;;30.63;14.93;;;;;;;11.78;100.00;110452.13;5073116;28;20510;-70
2024/01/07 20:09:06;;;;;;;29.13;14.60;;;;;;;11.56;100.00;110425.25;5074227;28;20119;-68
2024/01/07 20:11:32;;;;;;;34.85;15.07;;;;;;;11.58;100.00;110444.25;5082827;28;20081;-68
2024/01/07 20:13:58;;;;;;;36.38;20.88;;;;;;;11.54;100.00;110464.97;5091254;28;20024;-67
2024/01/07 20:16:24;;;;;;;37.78;21.55;;;;;;;11.61;100.00;110643.88;5093259;28;20422;-67
2024/01/07 20:18:50;;;;;;;46.13;23.02;;;;;;;11.00;100.00;110452.25;5093250;28;20496;-68
2024/01/07 20:21:22;;;;;;;46.10;23.90;;;;;;;11.51;100.00;110721.56;5091680;28;20040;-68
2024/01/07 20:24:00;;;;;;;44.88;22.48;;;;;;;11.00;100.00;110710.88;5091387;28;20032;-68
2024/01/07 20:26:26;;;;;;;48.10;22.77;;;;;;;11.14;100.00;110981.75;5095365;28;20032;-70
2024/01/07 20:28:56;;;;;;;40.85;22.98;;;;;;;11.42;100.00;111116.00;5091937;28;20035;-68
2024/01/07 20:31:22;;;;;;;50.35;22.75;;;;;;;11.54;100.00;111226.03;5093084;28;20039;-68
2024/01/07 20:33:48;;;;;;;39.92;21.30;;;;;;;11.61;100.00;111443.38;4723196;28;9999880;-69
2024/01/07 20:36:14;;;;;;;39.33;18.23;;;;;;;11.71;100.00;111599.03;5092230;28;20111;-70
2024/01/07 20:38:43;;;;;;;35.53;17.50;;;;;;;11.53;100.00;111634.50;5091858;28;20111;-70
2024/01/07 20:41:09;;;;;;;35.17;18.00;;;;;;;11.44;100.00;111572.69;5073421;28;20414;-69
2024/01/07 20:43:34;;;;;;;35.88;20.15;;;;;;;11.17;100.00;111507.13;5091271;28;20048;-70
2024/01/07 20:46:00;;;;;;;37.20;18.10;;;;;;;11.51;100.00;111787.50;5091846;28;20112;-69
2024/01/07 20:48:26;;;;;;;39.17;16.98;;;;;;;10.85;100.00;111718.97;5091502;28;20115;-74
2024/01/07 20:50:52;;;;;;;31.25;17.05;;;;;;;11.22;100.00;111862.03;5090856;28;20401;-69
2024/01/07 20:53:19;;;;;;;31.92;17.05;;;;;;;11.19;100.00;111925.34;5091673;28;20110;-72
2024/01/07 20:55:46;;;;;;;30.85;16.45;;;;;;;11.45;100.00;111988.31;5073874;28;20036;-69
2024/01/07 20:58:11;;;;;;;32.88;17.02;;;;;;;11.49;100.00;112074.97;5072769;28;20028;-69
2024/01/07 21:00:46;;;;;;;37.38;18.83;;;;;;;11.47;100.00;112165.75;5090453;28;20097;-69
2024/01/07 21:03:13;;;;;;;41.05;20.25;;;;;;;11.33;100.00;112135.38;5090517;28;20078;-69
2024/01/07 21:05:38;;;;;;;40.13;19.10;;;;;;;11.07;100.00;112239.00;5090012;28;20469;-69
2024/01/07 21:08:04;;;;;;;33.75;17.73;;;;;;;11.12;100.00;112437.28;5091292;28;20073;-69
2024/01/07 21:10:29;;;;;;;33.20;17.00;;;;;;;11.35;100.00;112506.94;5088866;28;20089;-69
2024/01/07 21:12:55;;;;;;;29.02;15.65;;;;;;;11.40;100.00;112589.47;5091025;28;20036;-70
2024/01/07 21:15:20;;;;;;;31.75;17.35;;;;;;;11.37;100.00;112611.00;5091307;28;20078;-69
2024/01/07 21:17:45;;;;;;;31.65;17.02;;;;;;;11.42;100.00;112695.41;5073148;28;20057;-69
2024/01/07 21:20:11;;;;;;;37.05;18.17;;;;;;;11.35;100.00;112726.59;5091262;28;20093;-69
2024/01/07 21:22:38;;;;;;;46.10;16.75;;;;;;;11.24;100.00;112652.28;5090864;28;20501;-70
2024/01/07 21:25:04;;;;;;;37.35;18.00;;;;;;;10.87;100.00;112660.91;5072535;28;20028;-70
2024/01/07 21:27:30;;;;;;;37.40;17.27;;;;;;;10.99;100.00;112793.28;5072818;28;20040;-69
2024/01/07 21:29:57;;;;;;;34.85;17.75;;;;;;;11.15;100.00;112800.41;5090664;28;20173;-69
2024/01/07 21:32:26;;;;;;;35.20;16.38;;;;;;;11.21;100.00;112909.69;5090947;28;20039;-69
2024/01/07 21:34:51;;;;;;;33.50;16.15;;;;;;;11.21;100.00;113060.38;5090021;28;20103;-70
2024/01/07 21:37:17;;;;;;;33.88;15.73;;;;;;;11.05;100.00;113054.81;5072366;28;20131;-70
2024/01/07 21:39:42;;;;;;;32.13;14.13;;;;;;;11.11;100.00;113216.78;5090512;28;20040;-69
2024/01/07 21:42:07;;;;;;;24.77;13.07;;;;;;;11.01;100.00;113216.69;5071797;28;20028;-72
2024/01/07 21:44:34;;;;;;;34.50;16.67;;;;;;;11.00;100.00;113273.53;5072284;28;20032;-69
2024/01/07 21:47:00;;;;;;;52.83;29.55;;;;;;;11.09;100.00;113476.97;5090184;28;20040;-69
2024/01/07 21:49:26;;;;;;;53.63;28.92;;;;;;;11.26;100.00;113809.72;5068729;28;20032;-69
2024/01/07 21:51:51;;;;;;;50.72;28.70;;;;;;;10.87;100.00;113838.72;5089519;28;20035;-73
2024/01/07 21:54:17;;;;;;;46.03;27.15;;;;;;;11.02;100.00;113816.16;5090008;28;20450;-69
2024/01/07 21:56:42;;;;;;;50.00;27.13;;;;;;;10.98;100.00;113787.16;5089070;28;20064;-68
2024/01/07 21:59:07;;;;;;;37.40;20.42;;;;;;;10.88;100.00;113957.09;5090185;28;20097;-69
2024/01/07 22:01:33;;;;;;;46.80;24.42;;;;;;;10.94;100.00;114071.63;5090167;28;20047;-70
2024/01/07 22:03:58;;;;;;;39.25;22.77;;;;;;;10.81;100.00;114149.00;5089944;28;20107;-69
2024/01/07 22:06:24;;;;;;;40.45;23.80;;;;;;;10.94;100.00;114252.00;5071933;28;20081;-70
2024/01/07 22:08:49;;;;;;;39.92;23.60;;;;;;;10.43;100.00;114408.28;5090564;28;20394;-71
2024/01/07 22:11:15;;;;;;;47.83;23.20;;;;;;;10.82;100.00;114461.44;5088838;28;20075;-69